createdAt,value
2023-03-22T00:00:39.051Z,100981.56
2023-03-22T00:03:07.271Z,100980.41
2023-03-22T00:05:35.905Z,100975.84
2023-03-22T00:08:23.557Z,100970.44
2023-03-22T00:10:56.230Z,100978.72
2023-03-22T00:13:24.566Z,100967.50
2023-03-22T00:15:52.582Z,100973.22
2023-03-22T00:18:22.949Z,100977.38
2023-03-22T00:20:52.892Z,100972.25
2023-03-22T00:23:21.030Z,100975.97
2023-03-22T00:25:48.893Z,100981.41
2023-03-22T00:28:19.035Z,100981.41
2023-03-22T00:30:56.769Z,100980.75
2023-03-22T00:33:29.622Z,100971.06
2023-03-22T00:35:59.964Z,100975.66
2023-03-22T00:38:44.897Z,100979.63
2023-03-22T00:41:14.292Z,100977.50
2023-03-22T00:43:44.916Z,100978.34
2023-03-22T00:46:14.129Z,100974.78
2023-03-22T00:48:42.997Z,100978.34
2023-03-22T00:51:11.313Z,100978.50
2023-03-22T00:53:43.119Z,100983.19
2023-03-22T00:56:16.278Z,100974.69
2023-03-22T00:59:14.370Z,100974.69
2023-03-22T01:01:47.134Z,100978.09
2023-03-22T01:04:18.389Z,100969.25
2023-03-22T01:06:47.552Z,100972.66
2023-03-22T01:09:16.913Z,100973.38
2023-03-22T01:11:46.494Z,100970.06
2023-03-22T01:14:15.241Z,100973.19
2023-03-22T01:16:43.715Z,100976.56
2023-03-22T01:19:11.511Z,100980.16
2023-03-22T01:21:39.761Z,100978.28
2023-03-22T01:24:07.857Z,100975.97
2023-03-22T01:26:36.242Z,100981.41
2023-03-22T01:29:04.127Z,100982.78
2023-03-22T01:31:32.310Z,100993.63
2023-03-22T01:34:01.035Z,100982.66
2023-03-22T01:36:31.007Z,100981.34
2023-03-22T01:38:59.680Z,100987.06
2023-03-22T01:41:27.812Z,100988.06
2023-03-22T01:44:15.285Z,100992.34
2023-03-22T01:46:44.995Z,100986.53
2023-03-22T01:49:16.523Z,100992.06
2023-03-22T01:51:47.372Z,100996.63
2023-03-22T01:54:43.257Z,100996.50
2023-03-22T01:57:42.265Z,100995.94
2023-03-22T02:00:16.169Z,100997.94
2023-03-22T02:03:02.816Z,100999.97
2023-03-22T02:05:37.459Z,101002.09
2023-03-22T02:08:09.626Z,101004.13
2023-03-22T02:10:53.997Z,100990.56
2023-03-22T02:13:58.016Z,101000.41
2023-03-22T02:17:01.604Z,100998.88
2023-03-22T02:19:49.993Z,100994.84
2023-03-22T02:22:39.299Z,100998.00
2023-03-22T02:25:29.243Z,100994.91
2023-03-22T02:28:03.543Z,101000.84
2023-03-22T02:30:44.015Z,100999.16
2023-03-22T02:33:29.630Z,100994.03
2023-03-22T02:36:03.695Z,101001.47
2023-03-22T02:39:05.277Z,100998.13
2023-03-22T02:41:56.378Z,101004.88
2023-03-22T02:44:35.667Z,101006.31
2023-03-22T02:47:08.568Z,101002.91
2023-03-22T02:50:12.370Z,101014.31
2023-03-22T02:52:48.289Z,101014.19
2023-03-22T02:55:43.909Z,101009.19
2023-03-22T02:58:22.432Z,101011.31
2023-03-22T03:00:56.935Z,101013.88
2023-03-22T03:03:29.631Z,101013.16
2023-03-22T03:06:00.904Z,101020.00
2023-03-22T03:08:29.139Z,101020.53
2023-03-22T03:11:00.404Z,101019.97
2023-03-22T03:13:28.706Z,101015.00
2023-03-22T03:15:59.867Z,101020.81
2023-03-22T03:19:21.029Z,101022.91
2023-03-22T03:21:54.673Z,101030.50
2023-03-22T03:24:43.233Z,101029.06
2023-03-22T03:27:22.056Z,101023.06
2023-03-22T03:30:35.513Z,101027.75
2023-03-22T03:33:09.686Z,101029.88
2023-03-22T03:35:44.019Z,101039.88
2023-03-22T03:38:21.106Z,101047.69
2023-03-22T03:41:04.236Z,101046.69
2023-03-22T03:43:32.912Z,101044.97
2023-03-22T03:46:00.788Z,101044.84
2023-03-22T03:48:32.304Z,101038.41
2023-03-22T03:51:00.682Z,101040.97
2023-03-22T03:53:30.874Z,101047.78
2023-03-22T03:56:00.138Z,101048.50
2023-03-22T03:58:35.497Z,101045.50
2023-03-22T04:01:04.454Z,101044.34
2023-03-22T04:03:50.924Z,101059.72
2023-03-22T04:06:44.378Z,101054.19
2023-03-22T04:09:17.914Z,101061.44
2023-03-22T04:11:55.610Z,101060.84
2023-03-22T04:14:24.176Z,101067.09
2023-03-22T04:16:54.132Z,101064.28
2023-03-22T04:19:24.424Z,101055.13
2023-03-22T04:21:53.435Z,101061.97
2023-03-22T04:24:22.262Z,101059.94
2023-03-22T04:26:53.095Z,101060.34
2023-03-22T04:29:32.576Z,101066.16
2023-03-22T04:32:24.726Z,101067.13
2023-03-22T04:34:53.744Z,101069.59
2023-03-22T04:37:43.217Z,101059.41
2023-03-22T04:40:17.911Z,101056.81
2023-03-22T04:43:04.592Z,101060.69
2023-03-22T04:45:55.223Z,101056.56
2023-03-22T04:48:28.470Z,101057.00
2023-03-22T04:50:58.608Z,101059.72
2023-03-22T04:53:28.718Z,101058.81
2023-03-22T04:56:03.046Z,101051.22
2023-03-22T04:58:31.925Z,101058.97
2023-03-22T05:01:00.243Z,101063.59
2023-03-22T05:03:29.073Z,101068.56
2023-03-22T05:05:58.859Z,101065.16
2023-03-22T05:08:34.722Z,101070.44
2023-03-22T05:11:14.621Z,101063.06
2023-03-22T05:13:46.528Z,101057.41
2023-03-22T05:16:18.559Z,101062.69
2023-03-22T05:18:54.785Z,101055.31
2023-03-22T05:21:31.522Z,101061.94
2023-03-22T05:24:01.066Z,101069.22
2023-03-22T05:47:59.738Z,101088.00
2023-03-22T05:50:31.467Z,101087.16
2023-03-22T05:53:00.927Z,101085.25
2023-03-22T05:55:40.630Z,101092.16
2023-03-22T05:58:19.294Z,101097.41
2023-03-22T06:00:51.791Z,101093.53
2023-03-22T06:03:26.124Z,101097.63
2023-03-22T06:06:01.241Z,101094.16
2023-03-22T06:08:44.882Z,101096.41
2023-03-22T06:11:23.507Z,101097.91
2023-03-22T06:13:54.409Z,101097.91
2023-03-22T06:16:27.401Z,101101.44
2023-03-22T06:19:52.875Z,101107.06
2023-03-22T06:22:26.954Z,101107.94
2023-03-22T06:24:57.039Z,101117.28
2023-03-22T06:27:36.784Z,101118.75
2023-03-22T06:30:07.036Z,101123.81
2023-03-22T06:32:47.726Z,101132.94
2023-03-22T06:35:16.827Z,101128.97
2023-03-22T06:37:47.749Z,101119.16
2023-03-22T06:40:17.020Z,101124.88
2023-03-22T06:42:49.135Z,101124.28
2023-03-22T06:45:20.051Z,101120.03
2023-03-22T06:47:48.091Z,101129.34
2023-03-22T06:50:36.502Z,101122.50
2023-03-22T06:53:39.102Z,101130.22
2023-03-22T06:56:07.411Z,101127.41
2023-03-22T06:58:47.016Z,101122.53
2023-03-22T07:01:15.227Z,101130.84
2023-03-22T07:03:46.401Z,101122.66
2023-03-22T07:06:17.597Z,101134.56
2023-03-22T07:08:51.996Z,101129.00
2023-03-22T07:11:29.088Z,101139.63
2023-03-22T07:14:01.706Z,101136.78
2023-03-22T07:16:48.220Z,101145.53
2023-03-22T07:19:18.905Z,101142.91
2023-03-22T07:21:55.474Z,101152.38
2023-03-22T07:24:33.171Z,101146.47
2023-03-22T07:27:23.443Z,101140.22
2023-03-22T07:30:04.646Z,101131.56
2023-03-22T07:32:45.789Z,101140.75
2023-03-22T07:35:17.364Z,101133.56
2023-03-22T07:37:46.790Z,101140.38
2023-03-22T07:40:26.906Z,101134.78
2023-03-22T07:42:59.403Z,101145.47
2023-03-22T07:45:55.598Z,101143.19
2023-03-22T07:48:57.048Z,101146.63
2023-03-22T07:52:02.056Z,101152.72
2023-03-22T07:54:34.704Z,101137.59
2023-03-22T07:57:14.396Z,101137.69
2023-03-22T07:59:50.171Z,101144.13
2023-03-22T08:02:23.214Z,101146.28
2023-03-22T08:04:56.603Z,101148.63
2023-03-22T08:07:33.073Z,101152.28
2023-03-22T08:10:11.743Z,101146.19
2023-03-22T08:12:51.518Z,101149.59
2023-03-22T08:15:24.523Z,101154.69
2023-03-22T08:18:00.007Z,101155.91
2023-03-22T08:20:39.903Z,101159.09
2023-03-22T08:23:20.114Z,101152.13
2023-03-22T08:26:40.587Z,101158.94
2023-03-22T08:29:20.567Z,101147.31
2023-03-22T08:31:54.294Z,101149.88
2023-03-22T08:34:24.504Z,101153.81
2023-03-22T08:36:57.555Z,101143.28
2023-03-22T08:39:26.220Z,101137.13
2023-03-22T08:42:10.277Z,101143.88
2023-03-22T08:44:38.976Z,101149.00
2023-03-22T08:47:08.132Z,101152.13
2023-03-22T08:49:36.936Z,101148.97
2023-03-22T08:55:14.731Z,101154.19
2023-03-22T08:58:05.075Z,101150.75
2023-03-22T09:00:54.055Z,101155.84
2023-03-22T09:03:46.512Z,101149.91
2023-03-22T09:06:16.496Z,101150.72
2023-03-22T09:08:49.125Z,101151.81
2023-03-22T09:11:18.293Z,101156.13
2023-03-22T09:13:50.762Z,101153.53
2023-03-22T09:16:23.564Z,101156.59
2023-03-22T09:18:53.621Z,101164.16
2023-03-22T09:21:23.276Z,101161.13
2023-03-22T09:24:11.127Z,101157.44
2023-03-22T09:26:47.528Z,101155.97
2023-03-22T09:29:20.167Z,101154.59
2023-03-22T09:31:49.869Z,101153.69
2023-03-22T09:34:28.380Z,101150.28
2023-03-22T09:37:02.431Z,101147.50
2023-03-22T09:39:38.676Z,101150.94
2023-03-22T09:42:16.525Z,101148.78
2023-03-22T09:44:44.572Z,101147.69
2023-03-22T11:56:14.798Z,101082.00
2023-03-22T11:58:44.437Z,101077.09
2023-03-22T12:01:37.396Z,101077.94
2023-03-22T12:04:06.405Z,101079.59
2023-03-22T12:06:38.396Z,101075.94
2023-03-22T12:09:12.104Z,101069.50
2023-03-22T12:11:40.830Z,101064.16
2023-03-22T12:14:23.080Z,101063.53
2023-03-22T12:16:53.055Z,101066.34
2023-03-22T12:19:27.231Z,101063.53
2023-03-22T12:21:54.748Z,101068.19
2023-03-22T12:24:30.940Z,101068.06
2023-03-22T12:27:18.908Z,101064.22
2023-03-22T12:30:14.468Z,101059.22
2023-03-22T12:32:49.700Z,101056.78
2023-03-22T12:35:27.281Z,101062.44
2023-03-22T12:37:56.962Z,101055.66
2023-03-22T12:40:36.748Z,101059.72
2023-03-22T12:43:27.292Z,101055.50
2023-03-22T12:45:59.299Z,101048.94
2023-03-22T12:48:46.360Z,101063.88
2023-03-22T12:51:14.314Z,101055.47
2023-03-22T12:53:52.818Z,101055.75
2023-03-22T12:56:24.768Z,101053.78
2023-03-22T12:58:58.340Z,101055.63
2023-03-22T13:01:44.248Z,101049.72
2023-03-22T13:04:30.173Z,101054.34
2023-03-22T13:07:29.049Z,101046.19
2023-03-22T13:09:56.871Z,101044.59
2023-03-22T13:12:27.412Z,101057.69
2023-03-22T13:15:16.653Z,101050.63
2023-03-22T13:17:45.076Z,101047.50
2023-03-22T13:20:14.850Z,101049.00
2023-03-22T13:22:45.932Z,101046.06
2023-03-22T13:25:19.817Z,101059.19
2023-03-22T13:27:53.303Z,101050.56
2023-03-22T13:30:43.968Z,101047.16
2023-03-22T13:33:11.885Z,101049.03
2023-03-22T13:35:51.196Z,101050.59
2023-03-22T13:38:24.198Z,101048.94
2023-03-22T13:40:52.790Z,101047.78
2023-03-22T13:43:31.514Z,101050.25
2023-03-22T13:46:08.264Z,101057.22
2023-03-22T13:48:44.667Z,101060.84
2023-03-22T13:51:22.723Z,101059.31
2023-03-22T13:54:08.616Z,101058.19
2023-03-22T13:56:42.463Z,101067.56
2023-03-22T13:59:29.878Z,101059.72
2023-03-22T14:02:02.159Z,101057.25
2023-03-22T14:04:42.722Z,101060.78
2023-03-22T14:07:35.710Z,101054.06
2023-03-22T14:10:06.938Z,101056.88
2023-03-22T14:12:56.543Z,101052.34
2023-03-22T14:15:53.657Z,101056.16
2023-03-22T14:18:28.106Z,101057.38
2023-03-22T14:21:00.328Z,101057.50
